createdAt,value
2023-05-19T00:00:47.517Z,15.09
2023-05-19T00:03:14.859Z,14.91
2023-05-19T00:05:45.485Z,14.92
2023-05-19T00:08:12.193Z,14.87
2023-05-19T00:10:38.656Z,14.82
2023-05-19T00:13:05.040Z,14.76
2023-05-19T00:15:31.454Z,14.84
2023-05-19T00:17:58.124Z,14.66
2023-05-19T00:20:24.547Z,14.73
2023-05-19T00:22:51.486Z,14.60
2023-05-19T00:25:17.933Z,14.66
2023-05-19T00:27:44.326Z,14.69
2023-05-19T00:30:10.888Z,14.85
2023-05-19T00:32:37.397Z,14.68
2023-05-19T00:35:03.860Z,14.70
2023-05-19T00:37:30.437Z,14.58
2023-05-19T00:39:57.296Z,14.69
2023-05-19T00:42:23.759Z,14.60
2023-05-19T00:44:50.390Z,14.70
2023-05-19T00:47:16.982Z,14.50
2023-05-19T00:49:43.359Z,14.39
2023-05-19T00:52:09.728Z,14.39
2023-05-19T00:54:36.240Z,14.56
2023-05-19T00:57:02.663Z,14.24
2023-05-19T00:59:29.254Z,14.69
2023-05-19T01:01:55.795Z,14.71
2023-05-19T01:04:22.232Z,14.60
2023-05-19T01:06:49.670Z,14.67
2023-05-19T01:09:16.400Z,14.72
2023-05-19T01:11:42.834Z,14.64
2023-05-19T01:14:09.260Z,14.58
2023-05-19T01:16:36.557Z,14.42
2023-05-19T01:19:03.804Z,14.53
2023-05-19T01:21:31.335Z,14.37
2023-05-19T01:23:57.755Z,14.24
2023-05-19T01:26:25.884Z,14.13
2023-05-19T01:28:52.566Z,14.05
2023-05-19T01:31:19.080Z,13.97
2023-05-19T01:33:45.590Z,13.85
2023-05-19T01:36:12.003Z,14.03
2023-05-19T01:38:38.408Z,14.08
2023-05-19T01:41:04.886Z,14.09
2023-05-19T01:43:31.669Z,14.09
2023-05-19T01:45:58.926Z,14.04
2023-05-19T01:48:26.050Z,13.95
2023-05-19T01:50:52.692Z,13.93
2023-05-19T01:53:19.126Z,13.87
2023-05-19T01:55:45.830Z,13.88
2023-05-19T01:58:12.270Z,13.91
2023-05-19T02:00:38.694Z,13.97
2023-05-19T02:03:05.159Z,13.97
2023-05-19T02:05:31.586Z,13.74
2023-05-19T02:07:57.980Z,13.82
2023-05-19T02:10:24.393Z,13.60
2023-05-19T02:12:51.271Z,13.54
2023-05-19T02:15:17.988Z,13.53
2023-05-19T02:17:48.190Z,13.51
2023-05-19T02:20:14.657Z,13.62
2023-05-19T02:22:41.342Z,13.60
2023-05-19T02:25:07.765Z,13.68
2023-05-19T02:27:34.216Z,13.72
2023-05-19T02:30:02.150Z,14.03
2023-05-19T02:32:28.629Z,13.91
2023-05-19T02:34:56.516Z,13.89
2023-05-19T02:37:28.385Z,14.05
2023-05-19T02:39:54.944Z,13.83
2023-05-19T02:42:21.377Z,13.86
2023-05-19T02:44:47.999Z,13.60
2023-05-19T02:47:14.510Z,13.69
2023-05-19T02:49:41.014Z,13.64
2023-05-19T02:52:07.428Z,13.61
2023-05-19T02:54:34.069Z,13.33
2023-05-19T02:57:01.058Z,13.42
2023-05-19T02:59:27.519Z,13.24
2023-05-19T03:01:53.946Z,13.37
2023-05-19T03:04:20.357Z,13.31
2023-05-19T03:06:46.823Z,13.16
2023-05-19T03:09:13.772Z,13.36
2023-05-19T03:11:40.203Z,13.20
2023-05-19T03:14:06.601Z,13.22
2023-05-19T03:16:34.060Z,13.12
2023-05-19T03:19:00.679Z,13.26
2023-05-19T03:21:27.164Z,13.28
2023-05-19T03:23:54.702Z,13.11
2023-05-19T03:26:23.027Z,13.11
2023-05-19T03:28:49.538Z,13.33
2023-05-19T03:31:16.413Z,13.16
2023-05-19T03:33:42.979Z,13.12
2023-05-19T03:36:09.990Z,13.22
2023-05-19T03:38:38.666Z,13.35
2023-05-19T03:41:05.513Z,13.34
2023-05-19T03:43:31.909Z,13.10
2023-05-19T03:46:02.505Z,13.08
2023-05-19T03:48:51.882Z,13.04
2023-05-19T03:51:37.016Z,12.99
2023-05-19T03:54:16.902Z,13.20
2023-05-19T03:56:43.342Z,13.21
2023-05-19T03:59:12.957Z,12.99
2023-05-19T04:01:39.411Z,13.03
2023-05-19T04:04:05.943Z,13.12
2023-05-19T04:06:32.398Z,13.34
2023-05-19T04:08:58.753Z,13.04
2023-05-19T04:11:25.169Z,13.53
2023-05-19T04:13:51.690Z,13.21
2023-05-19T04:16:18.157Z,13.08
2023-05-19T04:18:46.319Z,13.26
2023-05-19T04:21:12.893Z,13.12
2023-05-19T04:23:39.359Z,12.91
2023-05-19T04:26:06.876Z,13.07
2023-05-19T04:28:36.288Z,13.07
2023-05-19T04:31:03.464Z,13.24
2023-05-19T04:33:29.966Z,13.00
2023-05-19T04:35:58.357Z,13.21
2023-05-19T04:38:24.942Z,12.95
2023-05-19T04:40:52.004Z,13.15
2023-05-19T04:43:19.302Z,13.22
2023-05-19T04:45:46.547Z,12.98
2023-05-19T04:48:13.901Z,13.11
2023-05-19T04:50:42.187Z,13.18
2023-05-19T04:53:08.763Z,13.26
2023-05-19T04:55:35.844Z,13.39
2023-05-19T04:58:02.356Z,13.41
2023-05-19T05:00:29.652Z,13.46
2023-05-19T05:03:05.143Z,13.59
2023-05-19T05:05:32.508Z,13.26
2023-05-19T05:07:58.950Z,13.14
2023-05-19T05:10:28.340Z,13.28
2023-05-19T05:12:54.840Z,13.15
2023-05-19T05:15:21.352Z,13.35
2023-05-19T05:17:49.520Z,13.26
2023-05-19T05:20:16.381Z,13.62
2023-05-19T05:22:42.852Z,13.49
2023-05-19T05:25:09.600Z,13.67
2023-05-19T05:27:36.981Z,13.77
2023-05-19T05:30:05.306Z,13.73
2023-05-19T05:32:31.940Z,13.45
2023-05-19T05:35:00.001Z,13.36
2023-05-19T05:37:26.601Z,13.67
2023-05-19T05:39:53.021Z,13.73
2023-05-19T05:42:20.263Z,13.96
2023-05-19T05:44:48.703Z,13.89
2023-05-19T05:47:15.636Z,14.22
2023-05-19T05:49:42.116Z,14.31
2023-05-19T05:52:09.638Z,14.29
2023-05-19T05:54:42.175Z,14.70
2023-05-19T05:57:09.152Z,15.09
2023-05-19T05:59:35.620Z,14.69
2023-05-19T06:02:02.206Z,14.67
2023-05-19T06:04:28.944Z,14.53
2023-05-19T06:07:01.008Z,15.10
2023-05-19T06:09:30.858Z,14.91
2023-05-19T06:11:58.076Z,15.10
2023-05-19T06:14:26.975Z,15.33
2023-05-19T06:17:13.692Z,15.26
2023-05-19T06:19:40.383Z,15.21
2023-05-19T06:22:06.992Z,15.14
2023-05-19T06:24:33.796Z,14.92
2023-05-19T06:27:00.275Z,15.49
2023-05-19T06:29:26.823Z,15.46
2023-05-19T06:31:55.320Z,16.00
2023-05-19T06:34:21.966Z,15.93
2023-05-19T06:36:49.449Z,16.09
2023-05-19T06:39:18.545Z,16.15
2023-05-19T06:41:45.635Z,16.04
2023-05-19T06:44:23.805Z,15.94
2023-05-19T06:46:50.274Z,15.73
2023-05-19T06:49:16.913Z,16.06
2023-05-19T06:51:45.688Z,16.16
2023-05-19T06:54:13.088Z,16.30
2023-05-19T06:56:41.478Z,16.94
2023-05-19T06:59:08.172Z,16.69
2023-05-19T07:01:36.785Z,16.45
2023-05-19T07:04:03.732Z,16.36
2023-05-19T07:06:31.317Z,16.66
2023-05-19T07:08:57.753Z,17.17
2023-05-19T07:11:24.864Z,17.64
2023-05-19T07:13:51.324Z,16.69
2023-05-19T07:16:24.077Z,17.27
2023-05-19T07:18:50.592Z,17.24
2023-05-19T07:21:17.047Z,16.47
2023-05-19T07:23:43.562Z,17.03
2023-05-19T07:26:11.241Z,16.78
2023-05-19T07:28:40.687Z,16.76
2023-05-19T07:31:07.946Z,16.81
2023-05-19T07:33:34.349Z,16.98
2023-05-19T07:36:00.743Z,16.90
2023-05-19T07:38:28.722Z,17.05
2023-05-19T07:40:55.199Z,17.17
2023-05-19T07:43:21.601Z,17.40
2023-05-19T07:45:48.089Z,16.98
2023-05-19T07:48:14.889Z,17.28
2023-05-19T07:50:41.342Z,17.53
2023-05-19T07:53:07.779Z,17.12
2023-05-19T07:55:34.196Z,17.32
2023-05-19T07:58:00.579Z,17.90
2023-05-19T08:00:27.042Z,17.57
2023-05-19T08:02:53.499Z,17.54
2023-05-19T08:05:20.000Z,17.13
2023-05-19T08:07:47.021Z,17.40
2023-05-19T08:10:13.436Z,17.97
2023-05-19T08:12:39.878Z,17.72
2023-05-19T08:15:06.666Z,17.16
2023-05-19T08:17:33.146Z,16.94
2023-05-19T08:20:00.365Z,16.90
2023-05-19T08:22:26.768Z,17.75
2023-05-19T08:24:53.273Z,17.53
2023-05-19T08:27:19.693Z,17.65
2023-05-19T08:29:46.124Z,17.92
2023-05-19T08:32:13.334Z,18.11
2023-05-19T08:34:39.955Z,17.80
2023-05-19T08:37:07.015Z,17.87
2023-05-19T08:39:34.270Z,17.77
2023-05-19T08:42:01.305Z,18.23
2023-05-19T08:44:27.793Z,18.13
2023-05-19T08:46:54.283Z,18.50
2023-05-19T08:49:20.902Z,18.60
2023-05-19T08:51:48.323Z,18.70
2023-05-19T08:54:14.870Z,18.46
2023-05-19T08:56:41.463Z,18.37
2023-05-19T08:59:07.866Z,18.59
2023-05-19T09:01:34.377Z,18.58
2023-05-19T09:04:01.014Z,18.64
2023-05-19T09:06:27.514Z,18.57
2023-05-19T09:08:54.028Z,18.27
2023-05-19T09:11:22.779Z,18.34
2023-05-19T09:13:49.934Z,18.28
2023-05-19T09:16:17.285Z,19.17
2023-05-19T09:18:43.795Z,18.30
2023-05-19T09:21:11.230Z,18.06
2023-05-19T09:23:37.717Z,18.40
2023-05-19T09:26:04.447Z,18.24
2023-05-19T09:28:31.654Z,18.27
2023-05-19T09:30:58.047Z,18.51
2023-05-19T09:33:24.544Z,18.68
2023-05-19T09:35:51.270Z,18.53
2023-05-19T09:38:17.638Z,18.77
2023-05-19T09:40:44.052Z,19.05
2023-05-19T09:43:10.873Z,18.68
2023-05-19T09:45:37.254Z,18.47
2023-05-19T09:48:04.409Z,19.13
2023-05-19T09:50:31.051Z,18.90
2023-05-19T09:52:57.887Z,18.75
2023-05-19T09:55:25.593Z,18.88
2023-05-19T09:57:52.882Z,18.98
2023-05-19T10:00:19.552Z,18.96
2023-05-19T10:02:46.060Z,19.10
2023-05-19T10:05:12.573Z,19.40
2023-05-19T10:07:40.402Z,19.21
2023-05-19T10:10:08.290Z,19.45
2023-05-19T10:12:34.664Z,19.64
2023-05-19T10:15:01.183Z,19.06
2023-05-19T10:17:28.420Z,18.98
2023-05-19T10:19:55.112Z,19.08
2023-05-19T10:22:22.294Z,18.76
2023-05-19T10:24:48.767Z,18.88
2023-05-19T10:27:15.324Z,19.35
2023-05-19T10:29:42.295Z,19.11
2023-05-19T10:32:09.031Z,19.28
2023-05-19T10:34:37.422Z,19.26
2023-05-19T10:37:03.846Z,19.34
2023-05-19T10:39:30.291Z,19.55
2023-05-19T10:41:56.868Z,19.62
2023-05-19T10:44:23.284Z,19.43
2023-05-19T10:46:50.593Z,18.96
2023-05-19T10:49:17.081Z,19.03
2023-05-19T10:51:43.499Z,18.92
2023-05-19T10:54:11.527Z,19.28
2023-05-19T10:56:41.933Z,19.20
2023-05-19T10:59:08.350Z,19.14
2023-05-19T11:01:34.954Z,19.41
2023-05-19T11:04:01.604Z,19.68
2023-05-19T11:06:28.160Z,19.20
2023-05-19T11:08:54.636Z,19.48
2023-05-19T11:13:49.581Z,19.57
2023-05-19T11:16:16.107Z,19.59
2023-05-19T11:18:42.590Z,19.98
2023-05-19T11:21:09.071Z,19.90
2023-05-19T11:23:35.909Z,19.74
2023-05-19T11:26:02.336Z,19.70
2023-05-19T11:28:29.764Z,19.82
2023-05-19T11:30:57.596Z,20.27
2023-05-19T11:33:27.598Z,19.70
2023-05-19T11:35:54.261Z,19.89
2023-05-19T11:38:20.740Z,19.70
2023-05-19T11:40:47.743Z,19.71
2023-05-19T11:43:14.171Z,19.78
2023-05-19T11:45:40.636Z,19.94
2023-05-19T11:48:07.168Z,20.33
2023-05-19T11:50:33.662Z,19.99
2023-05-19T11:53:00.068Z,19.97
2023-05-19T11:55:26.979Z,20.24
2023-05-19T11:58:02.821Z,20.36
2023-05-19T12:00:30.465Z,20.36
2023-05-19T12:02:56.931Z,20.94
2023-05-19T12:05:23.573Z,20.50
2023-05-19T12:11:18.896Z,20.55
2023-05-19T12:13:46.462Z,21.11
2023-05-19T12:16:12.882Z,20.81
2023-05-19T12:18:39.329Z,20.49
2023-05-19T12:21:05.836Z,20.43
2023-05-19T12:23:32.233Z,20.42
2023-05-19T12:25:58.750Z,20.48
2023-05-19T12:28:25.228Z,20.59
2023-05-19T12:30:52.320Z,20.64
2023-05-19T12:33:19.568Z,20.59
2023-05-19T12:35:46.276Z,21.12
2023-05-19T12:38:12.734Z,21.11
2023-05-19T12:40:42.150Z,20.40
2023-05-19T12:43:09.681Z,20.73
2023-05-19T12:45:36.805Z,20.51
2023-05-19T12:48:03.364Z,20.67
2023-05-19T12:50:29.795Z,20.57
2023-05-19T12:52:56.490Z,20.83
2023-05-19T12:55:23.214Z,20.90
2023-05-19T12:57:50.739Z,21.25
2023-05-19T13:00:17.758Z,21.07
2023-05-19T13:02:44.310Z,20.98
2023-05-19T13:05:10.841Z,21.06
2023-05-19T13:07:37.210Z,20.57
2023-05-19T13:10:03.915Z,20.52
2023-05-19T13:12:30.403Z,20.92
2023-05-19T13:14:56.856Z,20.56
2023-05-19T13:17:23.545Z,20.53
2023-05-19T13:19:50.071Z,20.79
2023-05-19T13:22:16.550Z,20.67
2023-05-19T13:24:43.043Z,20.78
2023-05-19T13:27:09.577Z,21.23
2023-05-19T13:29:36.051Z,21.29
2023-05-19T13:32:02.522Z,21.27
2023-05-19T13:34:28.983Z,21.06
2023-05-19T13:36:55.604Z,20.84
2023-05-19T13:39:22.016Z,21.35
2023-05-19T13:41:48.412Z,21.63
2023-05-19T13:44:14.782Z,21.09
2023-05-19T13:46:45.560Z,21.24
2023-05-19T13:49:13.345Z,20.80
2023-05-19T13:51:39.947Z,20.78
2023-05-19T13:54:06.377Z,20.93
2023-05-19T13:56:32.778Z,20.45
2023-05-19T13:58:59.317Z,20.97
2023-05-19T14:01:25.860Z,21.03
2023-05-19T14:03:52.566Z,20.79
2023-05-19T14:06:19.607Z,20.81
2023-05-19T14:08:45.991Z,20.97
2023-05-19T14:11:12.525Z,20.79
2023-05-19T14:13:42.611Z,21.20
2023-05-19T14:16:09.883Z,21.16
2023-05-19T14:18:36.387Z,21.18
2023-05-19T14:21:02.871Z,21.17
2023-05-19T14:23:30.303Z,20.98
2023-05-19T14:25:56.804Z,21.20
2023-05-19T14:28:23.236Z,21.51
2023-05-19T14:30:50.397Z,22.08
2023-05-19T14:33:17.027Z,21.68
2023-05-19T14:35:43.417Z,21.30
2023-05-19T14:38:09.829Z,21.71
2023-05-19T14:40:36.327Z,21.51
2023-05-19T14:43:02.776Z,21.69
2023-05-19T14:45:29.208Z,21.80
2023-05-19T14:47:55.825Z,21.92
2023-05-19T14:50:22.354Z,22.02
2023-05-19T14:52:48.769Z,22.04
2023-05-19T14:55:15.345Z,21.77
2023-05-19T14:57:41.784Z,22.03
2023-05-19T15:00:10.159Z,22.71
2023-05-19T15:02:36.696Z,21.49
2023-05-19T15:05:03.141Z,21.53
2023-05-19T15:07:29.592Z,21.72
2023-05-19T15:09:56.222Z,21.86
2023-05-19T15:12:22.708Z,21.93
2023-05-19T15:14:49.116Z,21.88
2023-05-19T15:19:42.841Z,21.92
2023-05-19T15:22:09.357Z,22.01
2023-05-19T15:24:35.909Z,22.29
2023-05-19T15:27:02.303Z,22.16
2023-05-19T15:29:28.729Z,22.22
2023-05-19T15:31:55.996Z,21.92
2023-05-19T15:34:22.416Z,22.06
2023-05-19T15:36:48.825Z,22.12
2023-05-19T15:39:15.285Z,22.59
2023-05-19T15:41:41.708Z,22.12
2023-05-19T15:44:08.163Z,22.24
2023-05-19T15:46:34.794Z,22.05
2023-05-19T15:49:01.222Z,22.25
2023-05-19T15:51:27.661Z,22.18
2023-05-19T15:53:54.252Z,22.09
2023-05-19T15:56:21.545Z,22.60
2023-05-19T15:58:48.016Z,22.12
2023-05-19T16:01:14.457Z,22.14
2023-05-19T16:03:40.998Z,22.22
2023-05-19T16:06:07.476Z,21.84
2023-05-19T16:08:33.936Z,22.31
2023-05-19T16:11:00.458Z,22.76
2023-05-19T16:13:26.888Z,22.48
2023-05-19T16:15:53.343Z,22.55
2023-05-19T16:18:19.813Z,21.85
2023-05-19T16:20:46.222Z,21.98
2023-05-19T16:23:12.619Z,22.18
2023-05-19T16:25:39.021Z,22.75
2023-05-19T16:28:05.662Z,22.54
2023-05-19T16:30:32.819Z,22.88
2023-05-19T16:32:59.387Z,22.51
2023-05-19T16:35:27.831Z,22.50
2023-05-19T16:37:54.327Z,22.49
2023-05-19T16:40:20.972Z,22.31
2023-05-19T16:42:47.378Z,22.20
2023-05-19T16:45:13.792Z,22.01
2023-05-19T16:47:40.270Z,22.07
2023-05-19T16:50:06.783Z,22.11
2023-05-19T16:52:33.256Z,22.22
2023-05-19T16:54:59.632Z,22.30
2023-05-19T16:57:26.063Z,22.07
2023-05-19T16:59:52.474Z,22.07
2023-05-19T17:02:18.976Z,22.12
2023-05-19T17:04:45.466Z,22.25
2023-05-19T17:07:11.904Z,21.91
2023-05-19T17:09:38.305Z,22.12
2023-05-19T17:12:04.732Z,21.96
2023-05-19T17:14:31.140Z,22.42
2023-05-19T17:16:57.641Z,22.76
2023-05-19T17:19:24.202Z,22.42
2023-05-19T17:21:50.695Z,22.52
2023-05-19T17:24:17.114Z,22.87
2023-05-19T17:26:43.543Z,22.88
2023-05-19T17:29:09.927Z,22.85
2023-05-19T17:31:36.440Z,22.46
2023-05-19T17:34:02.873Z,22.61
2023-05-19T17:36:29.327Z,22.53
2023-05-19T17:38:55.899Z,22.32
2023-05-19T17:41:22.744Z,22.03
2023-05-19T17:43:49.220Z,22.45
2023-05-19T17:46:15.622Z,22.53
2023-05-19T17:48:42.145Z,22.23
2023-05-19T17:51:08.646Z,22.46
2023-05-19T17:53:35.031Z,22.48
2023-05-19T17:56:01.489Z,22.72
2023-05-19T17:58:27.921Z,22.09
2023-05-19T18:00:54.367Z,21.94
2023-05-19T18:03:21.186Z,21.91
2023-05-19T18:05:47.735Z,22.24
2023-05-19T18:08:14.832Z,22.26
2023-05-19T18:10:41.308Z,22.07
2023-05-19T18:13:07.770Z,22.27
2023-05-19T18:15:34.181Z,22.08
2023-05-19T18:18:00.643Z,21.87
2023-05-19T18:20:27.110Z,21.87
2023-05-19T18:22:53.542Z,21.82
2023-05-19T18:25:20.849Z,21.85
2023-05-19T18:27:47.524Z,21.83
2023-05-19T18:30:13.972Z,21.79
2023-05-19T18:32:40.649Z,21.58
2023-05-19T18:35:07.074Z,21.64
2023-05-19T18:37:33.487Z,21.51
2023-05-19T18:39:59.881Z,21.46
2023-05-19T18:42:26.304Z,21.30
2023-05-19T18:44:52.693Z,21.41
2023-05-19T18:47:19.762Z,21.11
2023-05-19T18:49:46.177Z,20.90
2023-05-19T18:52:12.682Z,20.90
2023-05-19T18:54:40.575Z,20.86
2023-05-19T18:57:07.050Z,21.20
2023-05-19T18:59:33.527Z,20.93
2023-05-19T19:01:59.935Z,20.64
2023-05-19T19:04:26.505Z,20.72
2023-05-19T19:06:53.341Z,20.70
2023-05-19T19:09:19.731Z,20.53
2023-05-19T19:11:46.196Z,20.32
2023-05-19T19:14:12.593Z,20.25
2023-05-19T19:16:39.103Z,20.30
2023-05-19T19:19:05.606Z,20.15
2023-05-19T19:21:32.095Z,20.05
2023-05-19T19:23:58.576Z,20.15
2023-05-19T19:26:26.814Z,20.10
2023-05-19T19:28:53.346Z,19.95
2023-05-19T19:31:19.793Z,19.54
2023-05-19T19:33:46.449Z,19.52
2023-05-19T19:36:12.854Z,19.48
2023-05-19T19:38:39.244Z,19.60
2023-05-19T19:41:05.688Z,19.77
2023-05-19T19:43:32.055Z,19.65
2023-05-19T19:45:59.813Z,19.41
2023-05-19T19:48:26.654Z,19.30
2023-05-19T19:50:53.522Z,19.60
2023-05-19T19:53:19.947Z,19.20
2023-05-19T19:55:46.406Z,19.35
2023-05-19T19:58:12.874Z,19.48
2023-05-19T20:00:39.274Z,19.54
2023-05-19T20:03:06.178Z,19.42
2023-05-19T20:05:32.812Z,19.30
2023-05-19T20:07:59.286Z,19.35
2023-05-19T20:10:25.803Z,19.14
2023-05-19T20:12:52.410Z,19.27
2023-05-19T20:15:18.856Z,19.14
2023-05-19T20:17:45.867Z,19.31
2023-05-19T20:20:12.385Z,19.14
2023-05-19T20:22:38.754Z,19.11
2023-05-19T20:25:05.206Z,19.12
2023-05-19T20:27:31.629Z,18.88
2023-05-19T20:29:58.025Z,18.91
2023-05-19T20:32:24.476Z,18.76
2023-05-19T20:34:51.246Z,18.67
2023-05-19T20:37:17.714Z,18.67
2023-05-19T20:39:44.202Z,18.87
2023-05-19T20:42:11.227Z,18.71
2023-05-19T20:44:37.663Z,18.73
2023-05-19T20:47:04.312Z,18.64
2023-05-19T20:49:30.798Z,18.68
2023-05-19T20:51:57.246Z,18.34
2023-05-19T20:54:23.749Z,18.44
2023-05-19T20:56:50.170Z,18.36
2023-05-19T20:59:16.611Z,18.19
2023-05-19T21:01:43.055Z,18.24
2023-05-19T21:04:09.559Z,18.35
2023-05-19T21:06:36.306Z,18.20
2023-05-19T21:09:05.134Z,18.46
2023-05-19T21:11:31.649Z,18.35
2023-05-19T21:13:58.135Z,18.41
2023-05-19T21:16:24.546Z,18.45
2023-05-19T21:18:51.124Z,18.36
2023-05-19T21:21:17.735Z,18.29
2023-05-19T21:23:44.156Z,18.57
2023-05-19T21:26:10.590Z,18.33
2023-05-19T21:28:37.043Z,18.45
2023-05-19T21:31:05.443Z,18.48
2023-05-19T21:33:31.948Z,18.41
2023-05-19T21:35:59.594Z,18.10
2023-05-19T21:38:26.319Z,18.05
2023-05-19T21:40:52.937Z,18.08
2023-05-19T21:43:19.600Z,17.97
2023-05-19T21:45:46.057Z,17.99
2023-05-19T21:48:12.577Z,18.08
2023-05-19T21:50:39.240Z,17.88
2023-05-19T21:56:39.661Z,17.98
2023-05-19T21:59:06.121Z,18.01
2023-05-19T22:01:32.865Z,18.05
2023-05-19T22:03:59.402Z,17.80
2023-05-19T22:06:26.389Z,17.96
2023-05-19T22:08:52.912Z,17.98
2023-05-19T22:11:19.446Z,17.95
2023-05-19T22:13:45.914Z,18.07
2023-05-19T22:16:12.426Z,18.02
2023-05-19T22:18:38.938Z,17.83
2023-05-19T22:21:05.521Z,17.78
2023-05-19T22:23:32.280Z,17.92
2023-05-19T22:25:58.772Z,17.64
2023-05-19T22:28:25.546Z,17.77
2023-05-19T22:30:52.011Z,17.88
2023-05-19T22:33:18.609Z,17.59
2023-05-19T22:35:45.126Z,17.97
2023-05-19T22:38:11.888Z,17.93
2023-05-19T22:40:38.635Z,17.90
2023-05-19T22:43:05.025Z,17.85
2023-05-19T22:45:31.645Z,17.60
2023-05-19T22:47:58.422Z,17.68
2023-05-19T22:50:25.052Z,17.77
2023-05-19T22:52:51.600Z,17.75
2023-05-19T22:55:18.026Z,17.66
2023-05-19T22:57:44.545Z,17.51
2023-05-19T23:00:14.032Z,17.44
2023-05-19T23:02:40.931Z,17.60
2023-05-19T23:05:07.448Z,17.61
2023-05-19T23:07:33.944Z,17.39
2023-05-19T23:10:00.475Z,17.50
2023-05-19T23:12:27.192Z,17.42
2023-05-19T23:14:53.951Z,17.38
2023-05-19T23:17:20.396Z,17.27
2023-05-19T23:19:46.841Z,17.26
2023-05-19T23:22:13.362Z,17.21
2023-05-19T23:24:40.063Z,17.18
2023-05-19T23:27:06.803Z,17.14
2023-05-19T23:29:33.382Z,17.09
2023-05-19T23:32:00.338Z,17.02
2023-05-19T23:34:26.744Z,16.80
2023-05-19T23:36:53.874Z,16.86
2023-05-19T23:39:22.376Z,17.03
2023-05-19T23:41:49.046Z,16.99
2023-05-19T23:44:15.657Z,16.90
2023-05-19T23:46:42.244Z,16.87
2023-05-19T23:49:08.748Z,16.70
2023-05-19T23:51:35.520Z,16.84
2023-05-19T23:54:02.035Z,16.96
2023-05-19T23:56:28.722Z,16.86
2023-05-19T23:58:55.319Z,16.69
